sensor_id;sensor_type;location;lat;lon;timestamp;pressure;altitude;pressure_sealevel;temperature;humidity
75420;BME280;63998;52.488;13.428;2023-02-01T00:02:21;100592.72;;;4.46;74.00
75420;BME280;63998;52.488;13.428;2023-02-01T00:04:48;100590.28;;;4.50;74.39
75420;BME280;63998;52.488;13.428;2023-02-01T00:07:19;100581.91;;;4.57;74.99
75420;BME280;63998;52.488;13.428;2023-02-01T00:09:44;100576.66;;;4.54;75.03
75420;BME280;63998;52.488;13.428;2023-02-01T00:12:09;100587.66;;;4.49;74.83
75420;BME280;63998;52.488;13.428;2023-02-01T00:14:35;100584.25;;;4.50;74.23
75420;BME280;63998;52.488;13.428;2023-02-01T00:17:05;100599.69;;;4.50;73.63
75420;BME280;63998;52.488;13.428;2023-02-01T00:19:33;100586.09;;;4.54;74.01
75420;BME280;63998;52.488;13.428;2023-02-01T00:21:59;100575.00;;;4.56;73.19
75420;BME280;63998;52.488;13.428;2023-02-01T00:24:24;100586.97;;;4.54;72.68
75420;BME280;63998;52.488;13.428;2023-02-01T00:26:52;100595.59;;;4.56;72.12
75420;BME280;63998;52.488;13.428;2023-02-01T00:29:19;100581.94;;;4.60;72.34
75420;BME280;63998;52.488;13.428;2023-02-01T00:31:50;100576.78;;;4.60;71.38
75420;BME280;63998;52.488;13.428;2023-02-01T00:34:16;100578.53;;;4.61;71.12
75420;BME280;63998;52.488;13.428;2023-02-01T00:36:43;100577.63;;;4.59;71.45
75420;BME280;63998;52.488;13.428;2023-02-01T00:39:11;100581.91;;;4.57;71.86
75420;BME280;63998;52.488;13.428;2023-02-01T00:41:37;100569.78;;;4.53;71.75
75420;BME280;63998;52.488;13.428;2023-02-01T00:44:05;100578.34;;;4.52;71.94
75420;BME280;63998;52.488;13.428;2023-02-01T00:46:30;100590.16;;;4.46;72.05
75420;BME280;63998;52.488;13.428;2023-02-01T00:48:56;100605.56;;;4.44;71.98
75420;BME280;63998;52.488;13.428;2023-02-01T00:51:26;100591.94;;;4.48;71.97
75420;BME280;63998;52.488;13.428;2023-02-01T00:53:52;100607.16;;;4.39;71.99
75420;BME280;63998;52.488;13.428;2023-02-01T00:56:18;100619.97;;;4.38;72.63
75420;BME280;63998;52.488;13.428;2023-02-01T00:58:43;100600.28;;;4.38;72.55
75420;BME280;63998;52.488;13.428;2023-02-01T01:01:15;100601.84;;;4.33;72.70
75420;BME280;63998;52.488;13.428;2023-02-01T01:03:49;100606.19;;;4.36;73.80
75420;BME280;63998;52.488;13.428;2023-02-01T01:06:18;100622.28;;;4.27;73.84
75420;BME280;63998;52.488;13.428;2023-02-01T01:08:44;100604.97;;;4.20;73.83
75420;BME280;63998;52.488;13.428;2023-02-01T01:11:16;100615.25;;;4.20;74.56
75420;BME280;63998;52.488;13.428;2023-02-01T01:13:46;100603.94;;;4.13;74.33
75420;BME280;63998;52.488;13.428;2023-02-01T01:16:13;100609.81;;;4.08;73.98
75420;BME280;63998;52.488;13.428;2023-02-01T01:18:38;100587.56;;;4.10;74.31
75420;BME280;63998;52.488;13.428;2023-02-01T01:21:05;100596.03;;;4.06;73.70
75420;BME280;63998;52.488;13.428;2023-02-01T01:23:34;100581.53;;;4.08;74.03
75420;BME280;63998;52.488;13.428;2023-02-01T01:25:59;100604.66;;;4.08;74.19
75420;BME280;63998;52.488;13.428;2023-02-01T01:28:27;100584.09;;;4.08;74.31
75420;BME280;63998;52.488;13.428;2023-02-01T01:30:52;100599.56;;;4.11;74.23
75420;BME280;63998;52.488;13.428;2023-02-01T01:33:20;100584.94;;;4.08;73.76
75420;BME280;63998;52.488;13.428;2023-02-01T01:35:45;100572.06;;;4.07;74.13
75420;BME280;63998;52.488;13.428;2023-02-01T01:38:11;100555.84;;;4.08;73.90
75420;BME280;63998;52.488;13.428;2023-02-01T01:40:36;100562.69;;;4.09;73.87
75420;BME280;63998;52.488;13.428;2023-02-01T01:43:02;100565.25;;;4.09;73.69
75420;BME280;63998;52.488;13.428;2023-02-01T01:45:33;100570.47;;;4.12;73.35
75420;BME280;63998;52.488;13.428;2023-02-01T01:48:02;100562.84;;;4.15;73.38
75420;BME280;63998;52.488;13.428;2023-02-01T01:50:41;100571.50;;;4.18;73.73
75420;BME280;63998;52.488;13.428;2023-02-01T01:53:11;100540.72;;;4.21;73.03
75420;BME280;63998;52.488;13.428;2023-02-01T01:55:39;100553.47;;;4.17;72.81
75420;BME280;63998;52.488;13.428;2023-02-01T01:58:12;100545.00;;;4.21;72.83
75420;BME280;63998;52.488;13.428;2023-02-01T02:00:40;100544.16;;;4.22;72.47
75420;BME280;63998;52.488;13.428;2023-02-01T02:03:15;100550.13;;;4.19;72.62
75420;BME280;63998;52.488;13.428;2023-02-01T02:05:43;100549.25;;;4.19;72.91
75420;BME280;63998;52.488;13.428;2023-02-01T02:08:09;100554.41;;;4.19;72.74
75420;BME280;63998;52.488;13.428;2023-02-01T02:10:38;100549.31;;;4.22;72.67
75420;BME280;63998;52.488;13.428;2023-02-01T02:13:22;100552.75;;;4.22;72.69
75420;BME280;63998;52.488;13.428;2023-02-01T02:16:13;100557.94;;;4.24;71.89
75420;BME280;63998;52.488;13.428;2023-02-01T02:24:40;100558.00;;;4.27;72.26
75420;BME280;63998;52.488;13.428;2023-02-01T02:27:35;100556.34;;;4.29;71.88
75420;BME280;63998;52.488;13.428;2023-02-01T02:41:31;100547.75;;;4.28;72.24
75420;BME280;63998;52.488;13.428;2023-02-01T02:44:24;100546.91;;;4.28;72.43
75420;BME280;63998;52.488;13.428;2023-02-01T02:47:19;100545.94;;;4.24;72.28
75420;BME280;63998;52.488;13.428;2023-02-01T02:50:09;100542.53;;;4.25;72.36
75420;BME280;63998;52.488;13.428;2023-02-01T02:53:25;100550.22;;;4.24;71.81
75420;BME280;63998;52.488;13.428;2023-02-01T02:56:12;100551.94;;;4.25;72.47
75420;BME280;63998;52.488;13.428;2023-02-01T02:58:58;100558.75;;;4.23;72.57
75420;BME280;63998;52.488;13.428;2023-02-01T03:01:43;100546.81;;;4.25;72.61
75420;BME280;63998;52.488;13.428;2023-02-01T03:04:27;100539.19;;;4.28;72.53
75420;BME280;63998;52.488;13.428;2023-02-01T03:06:53;100522.94;;;4.29;72.71
75420;BME280;63998;52.488;13.428;2023-02-01T03:09:41;100555.56;;;4.33;72.67
75420;BME280;63998;52.488;13.428;2023-02-01T03:12:13;100525.63;;;4.35;72.85
75420;BME280;63998;52.488;13.428;2023-02-01T03:15:05;100521.41;;;4.37;72.20
75420;BME280;63998;52.488;13.428;2023-02-01T03:17:39;100522.41;;;4.44;72.26
75420;BME280;63998;52.488;13.428;2023-02-01T03:20:11;100521.56;;;4.43;72.25
75420;BME280;63998;52.488;13.428;2023-02-01T03:22:39;100514.72;;;4.45;71.88
75420;BME280;63998;52.488;13.428;2023-02-01T03:25:11;100514.72;;;4.45;71.82
75420;BME280;63998;52.488;13.428;2023-02-01T03:28:05;100518.00;;;4.38;71.90
75420;BME280;63998;52.488;13.428;2023-02-01T03:33:03;100496.56;;;4.38;72.18
75420;BME280;63998;52.488;13.428;2023-02-01T03:35:33;100489.72;;;4.38;72.16
75420;BME280;63998;52.488;13.428;2023-02-01T03:38:23;100479.44;;;4.38;71.90
75420;BME280;63998;52.488;13.428;2023-02-01T03:46:29;100478.50;;;4.36;71.42
75420;BME280;63998;52.488;13.428;2023-02-01T03:49:02;100482.00;;;4.38;71.92
75420;BME280;63998;52.488;13.428;2023-02-01T03:51:30;100477.69;;;4.37;71.83
75420;BME280;63998;52.488;13.428;2023-02-01T03:53:56;100475.94;;;4.36;71.72
75420;BME280;63998;52.488;13.428;2023-02-01T03:56:24;100469.06;;;4.35;71.66
75420;BME280;63998;52.488;13.428;2023-02-01T03:58:52;100468.38;;;4.42;71.64
75420;BME280;63998;52.488;13.428;2023-02-01T04:01:28;100492.34;;;4.41;71.70
75420;BME280;63998;52.488;13.428;2023-02-01T04:03:54;100494.13;;;4.45;71.16
75420;BME280;63998;52.488;13.428;2023-02-01T04:06:20;100485.56;;;4.43;71.28
75420;BME280;63998;52.488;13.428;2023-02-01T04:08:45;100469.34;;;4.47;71.20
75420;BME280;63998;52.488;13.428;2023-02-01T04:11:13;100479.59;;;4.46;71.78
75420;BME280;63998;52.488;13.428;2023-02-01T04:13:39;100486.50;;;4.48;71.82
75420;BME280;63998;52.488;13.428;2023-02-01T04:16:04;100478.88;;;4.51;71.25
75420;BME280;63998;52.488;13.428;2023-02-01T04:18:30;100473.78;;;4.54;71.11
75420;BME280;63998;52.488;13.428;2023-02-01T04:20:55;100472.97;;;4.55;71.39
75420;BME280;63998;52.488;13.428;2023-02-01T04:23:23;100491.03;;;4.60;71.00
75420;BME280;63998;52.488;13.428;2023-02-01T04:25:50;100475.66;;;4.61;71.39
75420;BME280;63998;52.488;13.428;2023-02-01T04:28:18;100467.19;;;4.65;71.05
75420;BME280;63998;52.488;13.428;2023-02-01T04:30:50;100477.47;;;4.65;71.44
75420;BME280;63998;52.488;13.428;2023-02-01T04:33:15;100478.28;;;4.64;70.65
75420;BME280;63998;52.488;13.428;2023-02-01T04:35:41;100467.09;;;4.62;71.20
75420;BME280;63998;52.488;13.428;2023-02-01T04:38:08;100472.41;;;4.68;71.12
75420;BME280;63998;52.488;13.428;2023-02-01T04:40:34;100486.19;;;4.74;71.02
75420;BME280;63998;52.488;13.428;2023-02-01T04:43:02;100485.34;;;4.73;70.68
75420;BME280;63998;52.488;13.428;2023-02-01T04:45:30;100467.44;;;4.78;70.70
75420;BME280;63998;52.488;13.428;2023-02-01T04:47:55;100483.75;;;4.78;70.23
75420;BME280;63998;52.488;13.428;2023-02-01T04:50:20;100461.44;;;4.79;71.05
75420;BME280;63998;52.488;13.428;2023-02-01T04:52:46;100465.81;;;4.83;70.82
75420;BME280;63998;52.488;13.428;2023-02-01T04:55:12;100480.41;;;4.84;70.29
75420;BME280;63998;52.488;13.428;2023-02-01T04:57:39;100461.53;;;4.83;70.13
75420;BME280;63998;52.488;13.428;2023-02-01T05:00:06;100470.13;;;4.84;70.48
75420;BME280;63998;52.488;13.428;2023-02-01T05:02:32;100445.34;;;4.89;70.07
75420;BME280;63998;52.488;13.428;2023-02-01T05:05:01;100468.50;;;4.89;70.02
75420;BME280;63998;52.488;13.428;2023-02-01T05:07:28;100447.06;;;4.88;70.42
75420;BME280;63998;52.488;13.428;2023-02-01T05:09:56;100448.84;;;4.91;70.01
75420;BME280;63998;52.488;13.428;2023-02-01T05:12:21;100438.63;;;4.94;70.61
75420;BME280;63998;52.488;13.428;2023-02-01T05:15:06;100433.44;;;4.92;70.26
75420;BME280;63998;52.488;13.428;2023-02-01T05:17:31;100427.44;;;4.95;70.29
75420;BME280;63998;52.488;13.428;2023-02-01T05:19:57;100425.84;;;5.00;70.41
75420;BME280;63998;52.488;13.428;2023-02-01T05:22:24;100437.75;;;4.95;69.88
75420;BME280;63998;52.488;13.428;2023-02-01T05:24:50;100424.88;;;4.95;69.96
75420;BME280;63998;52.488;13.428;2023-02-01T05:27:15;100425.81;;;4.98;70.26
75420;BME280;63998;52.488;13.428;2023-02-01T05:29:43;100428.38;;;4.98;70.43
75420;BME280;63998;52.488;13.428;2023-02-01T05:32:09;100425.84;;;5.00;70.20
75420;BME280;63998;52.488;13.428;2023-02-01T05:34:35;100419.78;;;4.98;69.58
75420;BME280;63998;52.488;13.428;2023-02-01T05:37:02;100425.00;;;5.01;70.09
75420;BME280;63998;52.488;13.428;2023-02-01T05:39:27;100424.94;;;4.98;70.20
75420;BME280;63998;52.488;13.428;2023-02-01T05:41:52;100430.16;;;5.01;69.93
75420;BME280;63998;52.488;13.428;2023-02-01T05:44:18;100416.44;;;5.02;69.81
75420;BME280;63998;52.488;13.428;2023-02-01T05:46:43;100437.91;;;5.02;70.11
75420;BME280;63998;52.488;13.428;2023-02-01T05:49:09;100431.00;;;5.00;69.18
75420;BME280;63998;52.488;13.428;2023-02-01T05:51:34;100417.28;;;5.01;69.45
75420;BME280;63998;52.488;13.428;2023-02-01T05:53:59;100418.06;;;4.97;69.39
75420;BME280;63998;52.488;13.428;2023-02-01T05:56:25;100406.09;;;4.99;69.71
75420;BME280;63998;52.488;13.428;2023-02-01T05:58:50;100416.31;;;4.96;70.05
75420;BME280;63998;52.488;13.428;2023-02-01T06:01:15;100420.59;;;4.94;69.88
75420;BME280;63998;52.488;13.428;2023-02-01T06:03:43;100407.75;;;4.97;69.45
75420;BME280;63998;52.488;13.428;2023-02-01T06:06:09;100398.31;;;4.96;69.89
75420;BME280;63998;52.488;13.428;2023-02-01T06:08:34;100402.63;;;4.97;69.99
75420;BME280;63998;52.488;13.428;2023-02-01T06:11:05;100410.19;;;4.89;70.50
75420;BME280;63998;52.488;13.428;2023-02-01T06:13:32;100408.56;;;4.93;70.14
75420;BME280;63998;52.488;13.428;2023-02-01T06:16:01;100404.13;;;4.86;71.26
75420;BME280;63998;52.488;13.428;2023-02-01T06:18:27;100429.84;;;4.86;71.80
75420;BME280;63998;52.488;13.428;2023-02-01T06:20:59;100412.69;;;4.85;72.08
75420;BME280;63998;52.488;13.428;2023-02-01T06:23:29;100407.59;;;4.88;73.34
75420;BME280;63998;52.488;13.428;2023-02-01T06:26:03;100406.97;;;4.99;74.23
75420;BME280;63998;52.488;13.428;2023-02-01T06:28:30;100412.91;;;4.97;73.49
75420;BME280;63998;52.488;13.428;2023-02-01T06:30:56;100405.84;;;4.87;73.23
75420;BME280;63998;52.488;13.428;2023-02-01T06:33:24;100409.16;;;4.80;73.72
75420;BME280;63998;52.488;13.428;2023-02-01T06:36:01;100396.09;;;4.69;73.47
75420;BME280;63998;52.488;13.428;2023-02-01T06:38:28;100410.41;;;4.56;73.63
75420;BME280;63998;52.488;13.428;2023-02-01T06:40:55;100390.84;;;4.64;73.89
75420;BME280;63998;52.488;13.428;2023-02-01T06:43:22;100398.59;;;4.66;73.88
75420;BME280;63998;52.488;13.428;2023-02-01T06:45:48;100393.41;;;4.64;74.19
75420;BME280;63998;52.488;13.428;2023-02-01T06:48:14;100397.63;;;4.61;74.12
75420;BME280;63998;52.488;13.428;2023-02-01T06:50:39;100394.25;;;4.63;74.74
75420;BME280;63998;52.488;13.428;2023-02-01T06:53:06;100390.16;;;4.73;75.32
75420;BME280;63998;52.488;13.428;2023-02-01T06:55:32;100379.81;;;4.72;73.80
75420;BME280;63998;52.488;13.428;2023-02-01T06:57:57;100376.56;;;4.79;73.82
75420;BME280;63998;52.488;13.428;2023-02-01T07:00:26;100370.50;;;4.77;73.96
75420;BME280;63998;52.488;13.428;2023-02-01T07:02:51;100372.09;;;4.72;73.84
75420;BME280;63998;52.488;13.428;2023-02-01T07:05:17;100368.69;;;4.73;73.73
75420;BME280;63998;52.488;13.428;2023-02-01T07:07:42;100374.69;;;4.72;73.33
75420;BME280;63998;52.488;13.428;2023-02-01T07:10:09;100366.13;;;4.73;72.42
75420;BME280;63998;52.488;13.428;2023-02-01T07:12:34;100359.97;;;4.64;72.17
75420;BME280;63998;52.488;13.428;2023-02-01T07:15:03;100364.22;;;4.62;72.45
75420;BME280;63998;52.488;13.428;2023-02-01T07:17:31;100367.56;;;4.58;72.01
75420;BME280;63998;52.488;13.428;2023-02-01T07:19:57;100358.06;;;4.54;73.13
75420;BME280;63998;52.488;13.428;2023-02-01T07:22:25;100356.34;;;4.53;72.87
75420;BME280;63998;52.488;13.428;2023-02-01T07:24:52;100351.16;;;4.52;73.74
75420;BME280;63998;52.488;13.428;2023-02-01T07:27:18;100363.06;;;4.48;73.06
75420;BME280;63998;52.488;13.428;2023-02-01T07:29:45;100368.19;;;4.47;73.79
75420;BME280;63998;52.488;13.428;2023-02-01T07:32:10;100348.69;;;4.56;73.99
75420;BME280;63998;52.488;13.428;2023-02-01T07:34:40;100324.69;;;4.57;74.23
75420;BME280;63998;52.488;13.428;2023-02-01T07:37:08;100340.06;;;4.54;74.14
75420;BME280;63998;52.488;13.428;2023-02-01T07:39:33;100334.13;;;4.57;74.44
75420;BME280;63998;52.488;13.428;2023-02-01T07:42:01;100333.19;;;4.53;74.03
75420;BME280;63998;52.488;13.428;2023-02-01T07:44:29;100333.25;;;4.56;74.89
75420;BME280;63998;52.488;13.428;2023-02-01T07:46:56;100331.50;;;4.55;74.87
75420;BME280;63998;52.488;13.428;2023-02-01T07:49:22;100334.34;;;4.70;76.03
75420;BME280;63998;52.488;13.428;2023-02-01T07:51:47;100340.03;;;4.99;76.31
75420;BME280;63998;52.488;13.428;2023-02-01T07:54:12;100334.72;;;4.44;76.25
75420;BME280;63998;52.488;13.428;2023-02-01T07:56:40;100347.94;;;4.20;77.15
75420;BME280;63998;52.488;13.428;2023-02-01T07:59:08;100343.25;;;4.02;78.26
75420;BME280;63998;52.488;13.428;2023-02-01T08:01:36;100350.56;;;3.85;79.30
75420;BME280;63998;52.488;13.428;2023-02-01T08:04:02;100357.06;;;3.68;80.06
75420;BME280;63998;52.488;13.428;2023-02-01T08:06:33;100329.47;;;3.61;80.83
75420;BME280;63998;52.488;13.428;2023-02-01T08:08:59;100332.81;;;3.57;81.59
75420;BME280;63998;52.488;13.428;2023-02-01T08:11:30;100332.00;;;3.58;82.09
75420;BME280;63998;52.488;13.428;2023-02-01T08:13:58;100335.28;;;3.52;82.24
75420;BME280;63998;52.488;13.428;2023-02-01T08:16:24;100336.06;;;3.50;82.27
75420;BME280;63998;52.488;13.428;2023-02-01T08:18:51;100336.06;;;3.50;82.88
75420;BME280;63998;52.488;13.428;2023-02-01T08:21:22;100335.16;;;3.48;82.79
75420;BME280;63998;52.488;13.428;2023-02-01T08:23:48;100356.38;;;3.41;83.24
75420;BME280;63998;52.488;13.428;2023-02-01T08:28:50;100349.28;;;3.31;83.37
75420;BME280;63998;52.488;13.428;2023-02-01T08:31:17;100347.63;;;3.33;83.85
75420;BME280;63998;52.488;13.428;2023-02-01T08:33:44;100351.09;;;3.35;83.81
75420;BME280;63998;52.488;13.428;2023-02-01T08:36:15;100337.44;;;3.36;84.23
75420;BME280;63998;52.488;13.428;2023-02-01T08:38:40;100342.56;;;3.36;84.35
75420;BME280;63998;52.488;13.428;2023-02-01T08:41:07;100357.25;;;3.41;84.56
75420;BME280;63998;52.488;13.428;2023-02-01T08:43:33;100341.94;;;3.44;84.65
75420;BME280;63998;52.488;13.428;2023-02-01T08:45:59;100335.38;;;3.57;84.81
75420;BME280;63998;52.488;13.428;2023-02-01T08:48:26;100341.34;;;3.56;84.83
75420;BME280;63998;52.488;13.428;2023-02-01T08:50:52;100348.34;;;3.63;85.43
75420;BME280;63998;52.488;13.428;2023-02-01T08:53:17;100333.03;;;3.66;85.41
75420;BME280;63998;52.488;13.428;2023-02-01T08:55:47;100343.44;;;3.72;85.47
75420;BME280;63998;52.488;13.428;2023-02-01T08:58:15;100354.47;;;3.68;85.18
75420;BME280;63998;52.488;13.428;2023-02-01T09:00:43;100354.41;;;3.65;84.82
75420;BME280;63998;52.488;13.428;2023-02-01T09:03:10;100352.03;;;3.74;84.64
75420;BME280;63998;52.488;13.428;2023-02-01T09:05:39;100357.25;;;3.77;84.70
75420;BME280;63998;52.488;13.428;2023-02-01T09:08:04;100352.13;;;3.77;84.89
75420;BME280;63998;52.488;13.428;2023-02-01T09:10:33;100371.13;;;3.85;84.93
75420;BME280;63998;52.488;13.428;2023-02-01T09:13:01;100362.59;;;3.86;84.36
75420;BME280;63998;52.488;13.428;2023-02-01T09:15:26;100364.34;;;3.87;84.14
75420;BME280;63998;52.488;13.428;2023-02-01T09:17:52;100367.00;;;3.92;84.29
75420;BME280;63998;52.488;13.428;2023-02-01T09:20:19;100377.38;;;3.95;83.64
75420;BME280;63998;52.488;13.428;2023-02-01T09:22:51;100375.78;;;4.02;83.25
75420;BME280;63998;52.488;13.428;2023-02-01T09:25:20;100375.03;;;4.06;82.92
75420;BME280;63998;52.488;13.428;2023-02-01T09:27:45;100385.31;;;4.06;83.16
75420;BME280;63998;52.488;13.428;2023-02-01T09:30:11;100383.69;;;4.11;82.81
75420;BME280;63998;52.488;13.428;2023-02-01T09:32:37;100397.34;;;4.07;82.96
75420;BME280;63998;52.488;13.428;2023-02-01T09:35:02;100399.06;;;4.08;82.42
75420;BME280;63998;52.488;13.428;2023-02-01T09:37:27;100399.91;;;4.08;82.54
75420;BME280;63998;52.488;13.428;2023-02-01T09:39:53;100400.72;;;4.06;82.84
75420;BME280;63998;52.488;13.428;2023-02-01T09:42:29;100399.19;;;4.14;82.20
75420;BME280;63998;52.488;13.428;2023-02-01T09:45:24;100417.16;;;4.12;82.00
75420;BME280;63998;52.488;13.428;2023-02-01T09:48:02;100419.81;;;4.17;82.62
75420;BME280;63998;52.488;13.428;2023-02-01T09:50:34;100416.34;;;4.15;82.01
75420;BME280;63998;52.488;13.428;2023-02-01T09:53:09;100416.28;;;4.12;81.99
75420;BME280;63998;52.488;13.428;2023-02-01T09:55:46;100417.22;;;4.15;81.72
75420;BME280;63998;52.488;13.428;2023-02-01T09:58:16;100415.59;;;4.19;81.03
75420;BME280;63998;52.488;13.428;2023-02-01T10:00:54;100410.25;;;4.11;81.05
75420;BME280;63998;52.488;13.428;2023-02-01T10:03:23;100432.69;;;4.17;81.22
75420;BME280;63998;52.488;13.428;2023-02-01T10:05:54;100425.91;;;4.22;81.40
75420;BME280;63998;52.488;13.428;2023-02-01T10:17:29;100425.41;;;3.99;82.38
75420;BME280;63998;52.488;13.428;2023-02-01T10:22:58;100424.69;;;4.05;82.96
75420;BME280;63998;52.488;13.428;2023-02-01T10:25:31;100425.44;;;4.01;82.14
75420;BME280;63998;52.488;13.428;2023-02-01T10:28:00;100449.41;;;4.00;82.31
75420;BME280;63998;52.488;13.428;2023-02-01T10:30:42;100436.56;;;4.00;82.71
75420;BME280;63998;52.488;13.428;2023-02-01T10:33:17;100433.34;;;4.10;82.52
75420;BME280;63998;52.488;13.428;2023-02-01T10:35:46;100426.72;;;4.18;82.69
75420;BME280;63998;52.488;13.428;2023-02-01T10:40:51;100439.00;;;4.31;81.91
75420;BME280;63998;52.488;13.428;2023-02-01T10:43:19;100435.72;;;4.38;81.89
75420;BME280;63998;52.488;13.428;2023-02-01T10:45:45;100430.38;;;4.29;81.41
75420;BME280;63998;52.488;13.428;2023-02-01T10:48:11;100443.22;;;4.29;81.20
75420;BME280;63998;52.488;13.428;2023-02-01T10:50:57;100481.59;;;4.20;81.20
75420;BME280;63998;52.488;13.428;2023-02-01T10:53:44;100442.75;;;4.09;81.62
75420;BME280;63998;52.488;13.428;2023-02-01T10:56:22;100447.03;;;4.09;82.40
75420;BME280;63998;52.488;13.428;2023-02-01T10:58:47;100438.28;;;4.01;82.16
75420;BME280;63998;52.488;13.428;2023-02-01T11:01:24;100443.31;;;3.94;82.40
75420;BME280;63998;52.488;13.428;2023-02-01T11:03:57;100442.59;;;4.02;82.38
75420;BME280;63998;52.488;13.428;2023-02-01T11:06:37;100440.81;;;3.99;82.55
75420;BME280;63998;52.488;13.428;2023-02-01T11:16:59;100414.53;;;4.11;83.25
75420;BME280;63998;52.488;13.428;2023-02-01T11:19:25;100404.28;;;4.12;83.06
75420;BME280;63998;52.488;13.428;2023-02-01T11:21:53;100429.31;;;4.21;83.09
75420;BME280;63998;52.488;13.428;2023-02-01T11:26:49;100411.56;;;4.30;82.26
75420;BME280;63998;52.488;13.428;2023-02-01T11:29:18;100408.34;;;4.40;81.85
75420;BME280;63998;52.488;13.428;2023-02-01T11:31:49;100407.84;;;4.56;82.01
75420;BME280;63998;52.488;13.428;2023-02-01T11:34:17;100409.00;;;4.72;81.02
75420;BME280;63998;52.488;13.428;2023-02-01T11:36:45;100405.78;;;4.84;80.45
75420;BME280;63998;52.488;13.428;2023-02-01T11:41:54;100378.09;;;5.16;79.77
75420;BME280;63998;52.488;13.428;2023-02-01T11:44:26;100380.78;;;5.23;79.25
75420;BME280;63998;52.488;13.428;2023-02-01T11:46:54;100382.47;;;5.21;78.36
75420;BME280;63998;52.488;13.428;2023-02-01T11:49:24;100392.78;;;5.21;78.57
75420;BME280;63998;52.488;13.428;2023-02-01T11:52:17;100367.03;;;5.21;78.18
75420;BME280;63998;52.488;13.428;2023-02-01T12:05:59;100381.47;;;5.63;76.82
75420;BME280;63998;52.488;13.428;2023-02-01T12:12:01;100359.44;;;5.83;74.25
75420;BME280;63998;52.488;13.428;2023-02-01T12:28:57;100324.78;;;5.63;73.88
75420;BME280;63998;52.488;13.428;2023-02-01T12:34:49;100330.00;;;5.66;74.53
75420;BME280;63998;52.488;13.428;2023-02-01T12:42:32;100295.63;;;5.64;72.82
75420;BME280;63998;52.488;13.428;2023-02-01T12:45:14;100300.88;;;5.73;73.16
75420;BME280;63998;52.488;13.428;2023-02-01T12:50:53;100290.50;;;5.67;72.19
75420;BME280;63998;52.488;13.428;2023-02-01T12:53:24;100275.13;;;5.73;72.27
75420;BME280;63998;52.488;13.428;2023-02-01T12:55:55;100281.22;;;5.78;72.44
75420;BME280;63998;52.488;13.428;2023-02-01T13:01:12;100261.41;;;5.74;71.52
75420;BME280;63998;52.488;13.428;2023-02-01T13:06:27;100265.63;;;5.70;71.67
75420;BME280;63998;52.488;13.428;2023-02-01T13:09:22;100258.03;;;5.78;71.17
75420;BME280;63998;52.488;13.428;2023-02-01T13:11:50;100255.34;;;5.72;70.98
75420;BME280;63998;52.488;13.428;2023-02-01T13:16:48;100292.34;;;5.75;70.98
75420;BME280;63998;52.488;13.428;2023-02-01T13:19:32;100285.44;;;5.74;70.95
75420;BME280;63998;52.488;13.428;2023-02-01T13:22:07;100318.22;;;5.85;71.60
75420;BME280;63998;52.488;13.428;2023-02-01T13:24:42;100310.53;;;5.86;70.46
75420;BME280;63998;52.488;13.428;2023-02-01T13:27:12;100297.78;;;5.92;70.66
75420;BME280;63998;52.488;13.428;2023-02-01T13:29:51;100299.31;;;5.84;70.76
75420;BME280;63998;52.488;13.428;2023-02-01T13:32:43;100288.25;;;5.88;71.10
75420;BME280;63998;52.488;13.428;2023-02-01T13:43:13;100272.09;;;6.01;70.43
75420;BME280;63998;52.488;13.428;2023-02-01T13:45:46;100259.22;;;6.01;69.23
75420;BME280;63998;52.488;13.428;2023-02-01T13:48:27;100275.47;;;5.97;69.34
75420;BME280;63998;52.488;13.428;2023-02-01T13:50:58;100259.25;;;6.04;69.05
75420;BME280;63998;52.488;13.428;2023-02-01T13:53:45;100249.72;;;5.97;69.30
75420;BME280;63998;52.488;13.428;2023-02-01T13:56:15;100246.19;;;5.89;69.64
75420;BME280;63998;52.488;13.428;2023-02-01T13:58:43;100229.03;;;5.91;70.49
75420;BME280;63998;52.488;13.428;2023-02-01T14:03:57;100240.16;;;5.89;69.71
75420;BME280;63998;52.488;13.428;2023-02-01T14:11:53;100233.22;;;5.88;69.96
75420;BME280;63998;52.488;13.428;2023-02-01T14:19:35;100225.97;;;5.56;73.83
75420;BME280;63998;52.488;13.428;2023-02-01T14:24:54;100217.19;;;5.45;75.25
75420;BME280;63998;52.488;13.428;2023-02-01T14:27:26;100202.59;;;5.43;75.90
75420;BME280;63998;52.488;13.428;2023-02-01T14:29:57;100197.38;;;5.39;75.63
75420;BME280;63998;52.488;13.428;2023-02-01T14:32:30;100198.31;;;5.46;75.61
75420;BME280;63998;52.488;13.428;2023-02-01T14:34:59;100185.41;;;5.45;75.10
75420;BME280;63998;52.488;13.428;2023-02-01T14:37:31;100190.66;;;5.51;74.81
75420;BME280;63998;52.488;13.428;2023-02-01T14:40:00;100178.66;;;5.51;74.80
75420;BME280;63998;52.488;13.428;2023-02-01T14:42:55;100183.00;;;5.54;74.60
75420;BME280;63998;52.488;13.428;2023-02-01T15:01:29;100157.34;;;5.63;71.72
75420;BME280;63998;52.488;13.428;2023-02-01T15:06:44;100156.53;;;5.67;71.20
75420;BME280;63998;52.488;13.428;2023-02-01T15:09:17;100137.66;;;5.68;71.42
75420;BME280;63998;52.488;13.428;2023-02-01T15:14:33;100168.78;;;5.18;73.28
75420;BME280;63998;52.488;13.428;2023-02-01T15:16:59;100167.47;;;4.89;74.85
75420;BME280;63998;52.488;13.428;2023-02-01T15:19:29;100153.34;;;4.64;75.45
75420;BME280;63998;52.488;13.428;2023-02-01T15:21:57;100184.84;;;4.51;76.60
75420;BME280;63998;52.488;13.428;2023-02-01T15:24:28;100165.00;;;4.45;77.38
75420;BME280;63998;52.488;13.428;2023-02-01T15:27:02;100180.41;;;4.42;78.46
75420;BME280;63998;52.488;13.428;2023-02-01T15:29:31;100169.09;;;4.34;78.91
75420;BME280;63998;52.488;13.428;2023-02-01T15:31:58;100212.31;;;4.07;79.31
75420;BME280;63998;52.488;13.428;2023-02-01T15:34:45;100180.78;;;3.73;79.81
75420;BME280;63998;52.488;13.428;2023-02-01T15:37:15;100172.97;;;3.67;81.00